Time;durP1;ratioP1;P1;durP2;ratioP2;P2;SDS_P1;SDS_P2;PMS_P1;PMS_P2;Temp;Humidity;BMP_temperature;BMP_pressure;BME280_temperature;BME280_humidity;BME280_pressure;Samples;Min_cycle;Max_cycle;Signal;HPM_P1;HPM_P2
2023/07/25 00:00:24;;;;;;;12.50;3.67;;;;;;;;;;5086145;28;20067;-75
2023/07/25 00:02:50;;;;;;;9.90;3.40;;;;;;;;;;5088147;28;20048;-74
2023/07/25 00:05:16;;;;;;;12.95;3.58;;;;;;;;;;5069054;28;20117;-73
2023/07/25 00:07:42;;;;;;;13.52;3.65;;;;;;;;;;5089964;28;20036;-73
2023/07/25 00:10:08;;;;;;;12.85;3.78;;;;;;;;;;5087159;28;20119;-75
2023/07/25 00:12:35;;;;;;;12.48;3.92;;;;;;;;;;5070765;28;20056;-74
2023/07/25 00:15:01;;;;;;;12.85;4.20;;;;;;;;;;5085973;28;20062;-72
2023/07/25 00:17:27;;;;;;;10.93;3.80;;;;;;;;;;5071002;28;20140;-72
2023/07/25 00:19:53;;;;;;;9.82;4.28;;;;;;;;;;5066303;28;20808;-71
2023/07/25 00:22:20;;;;;;;13.23;4.07;;;;;;;;;;5087103;28;20146;-71
2023/07/25 00:24:46;;;;;;;9.65;4.22;;;;;;;;;;5086327;28;20040;-71
2023/07/25 00:27:12;;;;;;;12.73;4.45;;;;;;;;;;5084889;28;20118;-71
2023/07/25 00:29:38;;;;;;;14.38;3.88;;;;;;;;;;5086497;28;20062;-71
2023/07/25 00:32:05;;;;;;;9.57;4.18;;;;;;;;;;5086816;28;20048;-71
2023/07/25 00:34:31;;;;;;;12.15;4.15;;;;;;;;;;5088131;27;20499;-71
2023/07/25 00:36:57;;;;;;;11.40;4.53;;;;;;;;;;5070118;28;20074;-69
2023/07/25 00:39:23;;;;;;;15.43;4.20;;;;;;;;;;5054871;28;20130;-71
2023/07/25 00:41:49;;;;;;;11.52;4.25;;;;;;;;;;5089596;27;20134;-71
2023/07/25 00:44:15;;;;;;;12.90;4.18;;;;;;;;;;5087233;27;20056;-71
2023/07/25 00:46:42;;;;;;;8.32;4.00;;;;;;;;;;5087236;28;20055;-71
2023/07/25 00:49:08;;;;;;;10.52;4.40;;;;;;;;;;5085907;27;20044;-70
2023/07/25 00:51:35;;;;;;;11.90;4.18;;;;;;;;;;5064115;28;20127;-71
2023/07/25 00:54:01;;;;;;;11.68;3.83;;;;;;;;;;5047460;28;20043;-71
2023/07/25 00:56:27;;;;;;;12.48;3.83;;;;;;;;;;5086470;28;20055;-70
2023/07/25 00:58:54;;;;;;;15.68;4.40;;;;;;;;;;5066141;28;20068;-70
2023/07/25 01:01:21;;;;;;;11.63;4.60;;;;;;;;;;5086806;28;20056;-70
2023/07/25 01:03:47;;;;;;;11.32;4.18;;;;;;;;;;5086132;28;20137;-70
2023/07/25 01:06:14;;;;;;;12.57;3.75;;;;;;;;;;5087221;28;20047;-70
2023/07/25 01:08:49;;;;;;;13.40;4.55;;;;;;;;;;5066732;28;20039;-71
2023/07/25 01:11:15;;;;;;;16.88;4.05;;;;;;;;;;5087445;28;20530;-71
2023/07/25 01:13:41;;;;;;;9.82;4.13;;;;;;;;;;5068339;28;20162;-71
2023/07/25 01:16:09;;;;;;;15.73;4.10;;;;;;;;;;5085736;28;20423;-71
2023/07/25 01:18:35;;;;;;;9.73;3.78;;;;;;;;;;5086566;28;20965;-72
2023/07/25 01:21:02;;;;;;;17.55;4.25;;;;;;;;;;5069275;28;20079;-71
2023/07/25 01:23:29;;;;;;;10.75;4.00;;;;;;;;;;5086669;28;20055;-71
2023/07/25 01:25:55;;;;;;;10.35;3.90;;;;;;;;;;5086279;28;20613;-70
2023/07/25 01:28:21;;;;;;;16.75;3.97;;;;;;;;;;5087279;28;20044;-70
2023/07/25 01:30:48;;;;;;;9.77;3.83;;;;;;;;;;5051102;27;20609;-70
2023/07/25 01:33:14;;;;;;;9.25;3.72;;;;;;;;;;5069150;28;20056;-70
2023/07/25 01:35:40;;;;;;;18.70;4.20;;;;;;;;;;5085005;28;20452;-71
2023/07/25 01:38:09;;;;;;;10.20;3.80;;;;;;;;;;5086696;28;20126;-70
2023/07/25 01:40:39;;;;;;;19.50;4.47;;;;;;;;;;5085234;28;20089;-70
2023/07/25 01:43:05;;;;;;;15.90;3.97;;;;;;;;;;5087441;27;20056;-69
2023/07/25 01:45:31;;;;;;;17.48;4.50;;;;;;;;;;5086922;28;20066;-68
2023/07/25 01:47:59;;;;;;;12.48;3.95;;;;;;;;;;5084747;28;20043;-71
2023/07/25 01:50:25;;;;;;;10.18;3.53;;;;;;;;;;5083714;28;20048;-71
2023/07/25 01:52:51;;;;;;;9.98;3.85;;;;;;;;;;5055406;28;20044;-72
2023/07/25 01:55:18;;;;;;;11.77;3.95;;;;;;;;;;5056137;28;20043;-71
2023/07/25 01:57:44;;;;;;;15.20;4.15;;;;;;;;;;5093105;28;20138;-72
2023/07/25 02:00:12;;;;;;;11.07;4.30;;;;;;;;;;5073221;28;20087;-71
2023/07/25 02:02:38;;;;;;;17.73;4.28;;;;;;;;;;5090848;28;20043;-71
2023/07/25 02:05:05;;;;;;;13.13;3.53;;;;;;;;;;5087859;28;20050;-71
2023/07/25 02:07:32;;;;;;;12.50;4.60;;;;;;;;;;5063605;28;20052;-69
2023/07/25 02:09:58;;;;;;;13.40;4.18;;;;;;;;;;5084468;28;20043;-71
2023/07/25 02:12:25;;;;;;;10.50;4.70;;;;;;;;;;5049075;28;20055;-71
2023/07/25 02:14:51;;;;;;;14.68;4.70;;;;;;;;;;5046816;28;20098;-71
2023/07/25 02:17:19;;;;;;;10.77;4.35;;;;;;;;;;5083675;28;20051;-70
2023/07/25 02:19:45;;;;;;;10.80;4.18;;;;;;;;;;5067025;28;20055;-71
2023/07/25 02:22:11;;;;;;;12.23;4.13;;;;;;;;;;5087916;28;20472;-72
2023/07/25 02:24:37;;;;;;;9.77;4.40;;;;;;;;;;5065717;28;20079;-71
2023/07/25 02:27:04;;;;;;;10.93;4.20;;;;;;;;;;5050096;28;20051;-71
2023/07/25 02:29:31;;;;;;;10.05;4.05;;;;;;;;;;5063865;28;21349;-71
2023/07/25 02:31:57;;;;;;;12.38;4.47;;;;;;;;;;5080834;28;20158;-70
2023/07/25 02:34:23;;;;;;;13.38;4.22;;;;;;;;;;5081307;28;20585;-71
2023/07/25 02:36:50;;;;;;;14.30;5.00;;;;;;;;;;5075943;28;20047;-72
2023/07/25 02:39:16;;;;;;;13.15;4.47;;;;;;;;;;5057193;28;20056;-71
2023/07/25 02:41:42;;;;;;;12.00;4.22;;;;;;;;;;5061116;28;20067;-71
2023/07/25 02:44:08;;;;;;;8.57;3.95;;;;;;;;;;5081787;28;20825;-71
2023/07/25 02:46:34;;;;;;;8.13;3.75;;;;;;;;;;5062780;28;20064;-70
2023/07/25 02:49:00;;;;;;;19.02;4.70;;;;;;;;;;5064955;28;20062;-71
2023/07/25 02:51:26;;;;;;;12.90;3.85;;;;;;;;;;5083903;28;20050;-71
2023/07/25 02:53:53;;;;;;;15.43;4.70;;;;;;;;;;5081362;28;20199;-72
2023/07/25 02:56:20;;;;;;;10.90;4.15;;;;;;;;;;5067014;28;20048;-72
2023/07/25 02:58:47;;;;;;;12.60;4.68;;;;;;;;;;5062814;28;20058;-71
2023/07/25 03:01:13;;;;;;;11.65;5.90;;;;;;;;;;5050094;28;20078;-72
2023/07/25 03:03:39;;;;;;;8.65;4.22;;;;;;;;;;5085761;28;21065;-71
2023/07/25 03:06:05;;;;;;;10.95;4.63;;;;;;;;;;5068134;28;20621;-71
2023/07/25 03:08:31;;;;;;;15.30;4.25;;;;;;;;;;5068923;28;20043;-70
2023/07/25 03:10:57;;;;;;;12.13;4.55;;;;;;;;;;5087105;27;20044;-72
2023/07/25 03:13:23;;;;;;;10.55;4.93;;;;;;;;;;5067738;28;20051;-71
2023/07/25 03:15:49;;;;;;;14.65;4.30;;;;;;;;;;5084177;28;20044;-71
2023/07/25 03:18:15;;;;;;;12.63;4.25;;;;;;;;;;5066809;28;20056;-72
2023/07/25 03:20:41;;;;;;;10.60;3.67;;;;;;;;;;5084484;28;20052;-72
2023/07/25 03:23:07;;;;;;;18.80;4.85;;;;;;;;;;5068376;28;20085;-71
2023/07/25 03:25:33;;;;;;;9.63;3.97;;;;;;;;;;5067620;28;20059;-71
2023/07/25 03:27:59;;;;;;;12.15;4.00;;;;;;;;;;5084884;27;20402;-71
2023/07/25 03:30:26;;;;;;;17.50;3.33;;;;;;;;;;5083786;28;20778;-71
2023/07/25 03:32:52;;;;;;;10.57;2.92;;;;;;;;;;5069357;28;20043;-72
2023/07/25 03:35:18;;;;;;;7.57;2.90;;;;;;;;;;5060801;28;20066;-72
2023/07/25 03:37:44;;;;;;;14.57;3.35;;;;;;;;;;5085808;28;20044;-72
2023/07/25 03:40:10;;;;;;;10.77;3.38;;;;;;;;;;5086137;28;20078;-72
2023/07/25 03:42:36;;;;;;;11.48;3.30;;;;;;;;;;5066680;28;20086;-71
2023/07/25 03:45:02;;;;;;;8.55;2.75;;;;;;;;;;5086226;28;20058;-72
2023/07/25 03:47:28;;;;;;;6.93;2.80;;;;;;;;;;5066406;28;20047;-72
2023/07/25 03:49:54;;;;;;;11.40;2.90;;;;;;;;;;5084243;27;20096;-72
2023/07/25 03:52:21;;;;;;;7.32;3.22;;;;;;;;;;5066209;28;20065;-72
2023/07/25 03:54:47;;;;;;;7.38;3.17;;;;;;;;;;5084882;28;20644;-72
2023/07/25 03:57:14;;;;;;;10.68;2.70;;;;;;;;;;5085640;28;20077;-72
2023/07/25 03:59:40;;;;;;;13.40;2.95;;;;;;;;;;5082385;28;20051;-71
2023/07/25 04:02:06;;;;;;;12.65;3.35;;;;;;;;;;5088785;27;20039;-72
2023/07/25 04:04:32;;;;;;;11.82;3.17;;;;;;;;;;5084884;28;20101;-72
2023/07/25 04:06:59;;;;;;;9.30;3.38;;;;;;;;;;5051790;28;20748;-72
2023/07/25 04:09:25;;;;;;;16.83;4.00;;;;;;;;;;5047926;28;20075;-71
2023/07/25 04:11:51;;;;;;;14.93;3.78;;;;;;;;;;5060409;28;20176;-72
2023/07/25 04:14:17;;;;;;;13.02;3.22;;;;;;;;;;5063177;28;20055;-72
2023/07/25 04:16:43;;;;;;;14.45;3.60;;;;;;;;;;5066291;28;22047;-72
2023/07/25 04:19:09;;;;;;;9.68;2.45;;;;;;;;;;5083777;28;20468;-72
2023/07/25 04:21:35;;;;;;;9.63;2.40;;;;;;;;;;5062374;28;20047;-71
2023/07/25 04:24:01;;;;;;;10.52;2.53;;;;;;;;;;5066218;28;20131;-71
2023/07/25 04:26:27;;;;;;;9.90;2.80;;;;;;;;;;5083128;28;20756;-71
2023/07/25 04:28:53;;;;;;;11.90;2.60;;;;;;;;;;5062939;28;20048;-72
2023/07/25 04:31:19;;;;;;;16.08;2.80;;;;;;;;;;5083514;28;20087;-72
2023/07/25 04:33:45;;;;;;;10.40;2.58;;;;;;;;;;5084371;28;20399;-72
2023/07/25 04:36:12;;;;;;;8.38;2.60;;;;;;;;;;5082166;28;20048;-72
2023/07/25 04:38:38;;;;;;;11.32;2.50;;;;;;;;;;5081249;28;20059;-71
2023/07/25 04:41:04;;;;;;;10.32;2.58;;;;;;;;;;5062576;28;20051;-71
2023/07/25 04:43:30;;;;;;;7.70;2.00;;;;;;;;;;5064024;28;20051;-72
2023/07/25 04:45:56;;;;;;;10.15;2.50;;;;;;;;;;5066157;28;20052;-72
2023/07/25 04:48:22;;;;;;;6.88;2.60;;;;;;;;;;5048176;28;20048;-72
2023/07/25 04:50:48;;;;;;;7.50;2.60;;;;;;;;;;5066673;28;20491;-72
2023/07/25 04:53:14;;;;;;;6.32;2.30;;;;;;;;;;5084488;28;20048;-73
2023/07/25 04:55:40;;;;;;;6.57;2.40;;;;;;;;;;5067107;28;20099;-71
2023/07/25 04:58:06;;;;;;;9.55;2.22;;;;;;;;;;5066804;28;20051;-72
2023/07/25 05:00:33;;;;;;;16.02;3.72;;;;;;;;;;5066244;28;20108;-71
2023/07/25 05:02:59;;;;;;;6.93;2.53;;;;;;;;;;5068193;28;20059;-71
2023/07/25 05:05:25;;;;;;;7.63;2.30;;;;;;;;;;5066048;28;20051;-72
2023/07/25 05:07:51;;;;;;;7.40;2.65;;;;;;;;;;5067124;28;20047;-72
2023/07/25 05:10:17;;;;;;;10.15;2.53;;;;;;;;;;5066336;28;20118;-71
2023/07/25 05:12:43;;;;;;;9.65;2.47;;;;;;;;;;5066537;28;20611;-72
2023/07/25 05:15:09;;;;;;;7.18;1.90;;;;;;;;;;5084540;28;20099;-70
2023/07/25 05:17:35;;;;;;;8.77;2.45;;;;;;;;;;5064766;28;20475;-71
2023/07/25 05:20:01;;;;;;;7.78;2.15;;;;;;;;;;5081394;28;20051;-71
2023/07/25 05:22:28;;;;;;;7.07;2.33;;;;;;;;;;5067455;28;20047;-72
2023/07/25 05:24:54;;;;;;;6.53;2.17;;;;;;;;;;5063790;28;20057;-71
2023/07/25 05:27:20;;;;;;;8.65;2.40;;;;;;;;;;5083305;28;20423;-74
2023/07/25 05:29:46;;;;;;;13.43;2.97;;;;;;;;;;5067211;28;20104;-74
2023/07/25 05:32:12;;;;;;;9.43;2.53;;;;;;;;;;5085735;28;20046;-75
2023/07/25 05:34:38;;;;;;;15.07;2.17;;;;;;;;;;5083810;28;20047;-75
2023/07/25 05:37:06;;;;;;;8.25;2.42;;;;;;;;;;5084407;28;20047;-76
2023/07/25 05:39:32;;;;;;;10.85;2.85;;;;;;;;;;5063652;28;20051;-76
2023/07/25 05:41:58;;;;;;;15.95;2.42;;;;;;;;;;5071828;28;20069;-73
2023/07/25 05:44:24;;;;;;;11.88;2.60;;;;;;;;;;5075741;28;20152;-74
2023/07/25 05:46:50;;;;;;;6.55;2.35;;;;;;;;;;5074974;28;20055;-75
2023/07/25 05:49:16;;;;;;;10.18;3.00;;;;;;;;;;5092575;28;20071;-75
2023/07/25 05:51:42;;;;;;;7.90;2.40;;;;;;;;;;5065462;28;20046;-74
2023/07/25 05:54:08;;;;;;;6.97;1.83;;;;;;;;;;5090481;28;20050;-74
2023/07/25 05:56:34;;;;;;;17.55;2.58;;;;;;;;;;5064872;28;20105;-72
2023/07/25 05:59:00;;;;;;;14.77;2.10;;;;;;;;;;5083340;28;20047;-72
2023/07/25 06:01:27;;;;;;;8.15;2.10;;;;;;;;;;5064925;28;20059;-72
2023/07/25 06:03:53;;;;;;;7.70;1.70;;;;;;;;;;5028794;28;20079;-71
2023/07/25 06:06:19;;;;;;;11.52;2.20;;;;;;;;;;5065959;28;20081;-72
2023/07/25 06:08:45;;;;;;;9.30;2.42;;;;;;;;;;5045276;28;20153;-71
2023/07/25 06:11:11;;;;;;;12.10;2.60;;;;;;;;;;5061987;28;20514;-71
2023/07/25 06:13:37;;;;;;;11.20;2.70;;;;;;;;;;5083713;28;20055;-72
2023/07/25 06:16:03;;;;;;;8.15;2.03;;;;;;;;;;5059151;28;20079;-72
2023/07/25 06:18:30;;;;;;;8.75;2.25;;;;;;;;;;5082285;28;20067;-72
2023/07/25 06:20:56;;;;;;;7.03;1.85;;;;;;;;;;5065615;28;20066;-71
2023/07/25 06:23:22;;;;;;;7.93;2.10;;;;;;;;;;5069712;28;20047;-71
2023/07/25 06:25:48;;;;;;;10.25;2.78;;;;;;;;;;5083514;28;20044;-72
2023/07/25 06:28:15;;;;;;;11.70;2.10;;;;;;;;;;5065038;28;20395;-73
2023/07/25 06:30:42;;;;;;;10.10;1.98;;;;;;;;;;5064289;28;20052;-70
2023/07/25 06:33:08;;;;;;;8.02;2.03;;;;;;;;;;5084308;28;20043;-71
2023/07/25 06:35:34;;;;;;;10.60;2.10;;;;;;;;;;5063475;28;20070;-71
2023/07/25 06:38:01;;;;;;;10.80;2.30;;;;;;;;;;5064143;28;20132;-72
2023/07/25 06:40:27;;;;;;;5.75;1.60;;;;;;;;;;5063470;28;20160;-72
2023/07/25 06:42:53;;;;;;;8.10;1.85;;;;;;;;;;5083554;28;22031;-71
2023/07/25 06:45:19;;;;;;;6.32;2.00;;;;;;;;;;5062559;28;20078;-72
2023/07/25 06:47:45;;;;;;;10.80;1.90;;;;;;;;;;5050598;28;20071;-71
2023/07/25 06:50:12;;;;;;;6.45;1.52;;;;;;;;;;5065276;28;20123;-72
2023/07/25 06:52:38;;;;;;;6.65;2.17;;;;;;;;;;5049145;28;20589;-72
2023/07/25 06:55:04;;;;;;;8.93;1.52;;;;;;;;;;5082198;28;20087;-73
2023/07/25 06:57:30;;;;;;;6.55;1.55;;;;;;;;;;5083454;28;20043;-72
2023/07/25 06:59:56;;;;;;;5.88;1.48;;;;;;;;;;5065336;28;20048;-72
2023/07/25 07:02:22;;;;;;;15.35;1.75;;;;;;;;;;5065457;28;20044;-73
2023/07/25 07:04:48;;;;;;;8.23;1.88;;;;;;;;;;5083580;28;20135;-72
2023/07/25 07:07:14;;;;;;;5.95;1.10;;;;;;;;;;5082509;28;20396;-72
2023/07/25 07:09:40;;;;;;;6.13;1.50;;;;;;;;;;5050755;28;20043;-72
2023/07/25 07:12:07;;;;;;;10.38;1.30;;;;;;;;;;5062616;28;20039;-72
2023/07/25 07:14:33;;;;;;;10.07;2.22;;;;;;;;;;5065328;28;20055;-73
2023/07/25 07:16:59;;;;;;;3.92;1.15;;;;;;;;;;5081523;28;20044;-71
2023/07/25 07:19:25;;;;;;;9.65;1.65;;;;;;;;;;5046314;28;20136;-72
2023/07/25 07:21:51;;;;;;;7.65;1.40;;;;;;;;;;5065673;28;20050;-71
2023/07/25 07:24:17;;;;;;;5.78;1.17;;;;;;;;;;5065887;28;20187;-73
2023/07/25 07:26:43;;;;;;;5.88;1.20;;;;;;;;;;5064635;28;20100;-72
2023/07/25 07:29:11;;;;;;;6.65;1.00;;;;;;;;;;5062586;28;20079;-70
2023/07/25 07:31:38;;;;;;;3.40;0.90;;;;;;;;;;5063745;28;20590;-77
2023/07/25 07:34:11;;;;;;;6.88;1.30;;;;;;;;;;5050247;28;20075;-77
2023/07/25 07:36:37;;;;;;;9.30;1.37;;;;;;;;;;5065252;28;20048;-77
2023/07/25 07:39:03;;;;;;;7.97;1.38;;;;;;;;;;5063679;28;20052;-76
2023/07/25 07:41:29;;;;;;;10.15;1.20;;;;;;;;;;5064396;28;20051;-78
2023/07/25 07:43:55;;;;;;;4.57;1.27;;;;;;;;;;5066410;28;20055;-78
2023/07/25 07:46:21;;;;;;;7.70;1.30;;;;;;;;;;5062395;28;20058;-77
2023/07/25 07:48:47;;;;;;;9.82;1.65;;;;;;;;;;5045071;28;20772;-78
2023/07/25 07:51:13;;;;;;;9.55;1.55;;;;;;;;;;5068314;28;20039;-78
2023/07/25 07:53:40;;;;;;;11.57;1.15;;;;;;;;;;5067526;28;20059;-78
2023/07/25 07:56:07;;;;;;;8.93;1.73;;;;;;;;;;5085718;28;20056;-78
2023/07/25 07:58:33;;;;;;;10.27;1.50;;;;;;;;;;5083974;28;20120;-78
2023/07/25 08:00:59;;;;;;;8.15;1.75;;;;;;;;;;5052619;28;20056;-77
2023/07/25 08:03:25;;;;;;;6.63;1.52;;;;;;;;;;5066396;28;20069;-79
2023/07/25 08:05:57;;;;;;;6.75;1.50;;;;;;;;;;5087195;28;20051;-78
2023/07/25 08:08:24;;;;;;;8.95;1.45;;;;;;;;;;5067095;28;20146;-72
2023/07/25 08:10:50;;;;;;;7.20;1.38;;;;;;;;;;5085875;28;20047;-73
2023/07/25 08:13:16;;;;;;;10.93;1.38;;;;;;;;;;5069795;28;20058;-72
2023/07/25 08:15:42;;;;;;;5.82;1.20;;;;;;;;;;5086639;28;20066;-72
2023/07/25 08:18:08;;;;;;;12.95;1.50;;;;;;;;;;5070521;28;20043;-72
2023/07/25 08:20:34;;;;;;;9.10;1.27;;;;;;;;;;5067357;27;20047;-73
2023/07/25 08:23:00;;;;;;;12.02;1.38;;;;;;;;;;5067337;28;20137;-72
2023/07/25 08:25:26;;;;;;;6.18;1.23;;;;;;;;;;5085894;27;20616;-72
2023/07/25 08:27:52;;;;;;;5.57;1.08;;;;;;;;;;5067256;28;20047;-72
2023/07/25 08:30:19;;;;;;;5.43;1.30;;;;;;;;;;5089372;28;20044;-72
2023/07/25 08:32:45;;;;;;;7.78;1.20;;;;;;;;;;5089759;27;20142;-72
2023/07/25 08:35:11;;;;;;;2.65;1.02;;;;;;;;;;5068279;28;20051;-72
2023/07/25 08:37:37;;;;;;;9.25;1.65;;;;;;;;;;5084724;27;20056;-73
2023/07/25 08:40:03;;;;;;;7.38;1.25;;;;;;;;;;5065413;28;20387;-72
2023/07/25 08:42:31;;;;;;;5.22;1.30;;;;;;;;;;5084137;28;20051;-72
2023/07/25 08:44:58;;;;;;;7.70;1.33;;;;;;;;;;5068826;28;20052;-72
2023/07/25 08:47:28;;;;;;;3.65;1.33;;;;;;;;;;5085547;28;20048;-72
2023/07/25 08:49:56;;;;;;;4.10;1.20;;;;;;;;;;5067859;28;20110;-72
2023/07/25 08:52:26;;;;;;;5.40;1.30;;;;;;;;;;5083349;28;20476;-73
2023/07/25 08:54:53;;;;;;;5.22;1.38;;;;;;;;;;5067578;28;20051;-72
2023/07/25 08:57:19;;;;;;;6.93;1.27;;;;;;;;;;5055051;28;20047;-73
2023/07/25 08:59:50;;;;;;;15.27;1.50;;;;;;;;;;5084607;27;20153;-73
2023/07/25 09:02:17;;;;;;;5.43;0.98;;;;;;;;;;5083450;28;20127;-73
2023/07/25 09:04:45;;;;;;;12.15;1.63;;;;;;;;;;5087183;27;20050;-71
2023/07/25 09:07:11;;;;;;;5.78;1.38;;;;;;;;;;5067612;28;20492;-71
2023/07/25 09:09:37;;;;;;;5.00;1.08;;;;;;;;;;5042887;28;20058;-72
2023/07/25 09:12:04;;;;;;;3.58;0.88;;;;;;;;;;5086837;27;20044;-73
2023/07/25 09:14:30;;;;;;;5.28;1.10;;;;;;;;;;5068803;28;20214;-72
2023/07/25 09:16:56;;;;;;;10.30;2.15;;;;;;;;;;5086325;28;20055;-72
2023/07/25 09:19:22;;;;;;;4.22;1.13;;;;;;;;;;5084080;28;21736;-72
2023/07/25 09:21:49;;;;;;;3.97;0.85;;;;;;;;;;5053545;28;20051;-72
2023/07/25 09:24:15;;;;;;;6.28;2.10;;;;;;;;;;5070172;28;20101;-72
2023/07/25 09:26:48;;;;;;;4.78;1.38;;;;;;;;;;5083779;28;20516;-72
2023/07/25 09:29:14;;;;;;;2.45;1.45;;;;;;;;;;5067517;28;20048;-73
2023/07/25 09:31:44;;;;;;;3.92;1.00;;;;;;;;;;5051215;28;20048;-72
2023/07/25 09:34:14;;;;;;;4.47;1.10;;;;;;;;;;5066683;28;20491;-72
2023/07/25 09:36:44;;;;;;;4.05;1.55;;;;;;;;;;5085221;28;20055;-73
2023/07/25 09:39:10;;;;;;;4.93;1.10;;;;;;;;;;5088475;28;20062;-73
2023/07/25 09:41:36;;;;;;;4.55;0.98;;;;;;;;;;5072215;28;20048;-72
2023/07/25 09:44:05;;;;;;;4.07;0.90;;;;;;;;;;5089952;28;20047;-72
2023/07/25 09:46:31;;;;;;;5.30;1.20;;;;;;;;;;5071376;28;20051;-74
2023/07/25 09:48:57;;;;;;;4.78;0.93;;;;;;;;;;5089524;28;20261;-75
2023/07/25 09:51:23;;;;;;;8.23;1.42;;;;;;;;;;5066180;28;20186;-73
2023/07/25 09:53:54;;;;;;;4.97;1.17;;;;;;;;;;5071092;28;20086;-73
2023/07/25 09:56:24;;;;;;;4.10;0.82;;;;;;;;;;5068310;28;20052;-73
2023/07/25 09:58:51;;;;;;;4.03;1.05;;;;;;;;;;5088947;28;20055;-74
2023/07/25 10:01:17;;;;;;;5.53;1.10;;;;;;;;;;5064645;28;20044;-73
2023/07/25 10:03:43;;;;;;;8.23;1.10;;;;;;;;;;5083051;28;20118;-74
2023/07/25 10:06:10;;;;;;;7.30;1.20;;;;;;;;;;5063997;28;20741;-70
2023/07/25 10:08:39;;;;;;;11.10;1.42;;;;;;;;;;5063147;28;20044;-71
2023/07/25 10:11:06;;;;;;;4.35;1.05;;;;;;;;;;5061671;28;20048;-73
2023/07/25 10:13:32;;;;;;;9.60;1.38;;;;;;;;;;5062717;28;20048;-71
2023/07/25 10:16:00;;;;;;;7.50;1.35;;;;;;;;;;5047275;28;20579;-72
2023/07/25 10:18:27;;;;;;;6.97;1.75;;;;;;;;;;5064462;28;20098;-73
2023/07/25 10:20:54;;;;;;;6.70;1.23;;;;;;;;;;5065654;28;20036;-74
2023/07/25 10:23:28;;;;;;;5.97;1.00;;;;;;;;;;5064382;28;20145;-74
2023/07/25 10:25:54;;;;;;;8.40;1.52;;;;;;;;;;5064003;28;20052;-74
2023/07/25 10:28:22;;;;;;;6.18;1.80;;;;;;;;;;5050696;28;20062;-79
2023/07/25 10:30:49;;;;;;;5.57;1.48;;;;;;;;;;5066097;28;20118;-79
2023/07/25 10:33:16;;;;;;;6.40;1.20;;;;;;;;;;5063611;28;20067;-79
2023/07/25 10:35:42;;;;;;;8.52;1.02;;;;;;;;;;5065364;28;20063;-78
2023/07/25 10:38:10;;;;;;;3.75;1.20;;;;;;;;;;5047751;28;20052;-78
2023/07/25 10:40:52;;;;;;;5.38;1.20;;;;;;;;;;5064184;28;20122;-77
2023/07/25 10:43:19;;;;;;;4.15;1.05;;;;;;;;;;5064015;28;20160;-78
2023/07/25 10:45:45;;;;;;;4.55;1.08;;;;;;;;;;5063639;28;20266;-74
2023/07/25 10:48:32;;;;;;;7.65;1.15;;;;;;;;;;5065318;28;20052;-74
2023/07/25 10:50:58;;;;;;;4.32;1.23;;;;;;;;;;5063762;28;20089;-74
2023/07/25 10:53:24;;;;;;;8.18;1.15;;;;;;;;;;5060475;28;20102;-74
2023/07/25 10:56:10;;;;;;;8.50;1.60;;;;;;;;;;5062904;28;20052;-74
2023/07/25 10:58:38;;;;;;;5.35;1.73;;;;;;;;;;5065433;28;20082;-73
2023/07/25 11:01:04;;;;;;;9.20;1.38;;;;;;;;;;5063919;28;20188;-73
2023/07/25 11:03:34;;;;;;;3.92;1.35;;;;;;;;;;5066149;28;20126;-74
2023/07/25 11:06:06;;;;;;;3.20;0.98;;;;;;;;;;5065104;28;20075;-72
2023/07/25 11:08:36;;;;;;;5.93;1.50;;;;;;;;;;5064356;28;20043;-73
2023/07/25 11:11:03;;;;;;;3.13;0.98;;;;;;;;;;5066460;28;20036;-74
2023/07/25 11:13:30;;;;;;;5.82;1.42;;;;;;;;;;5068541;28;20063;-74
2023/07/25 11:15:56;;;;;;;4.32;1.00;;;;;;;;;;5067297;28;20052;-74
2023/07/25 11:18:22;;;;;;;5.10;1.05;;;;;;;;;;5066860;28;20398;-73
2023/07/25 11:20:58;;;;;;;4.30;1.30;;;;;;;;;;5067979;28;20050;-74
2023/07/25 11:23:24;;;;;;;7.95;1.30;;;;;;;;;;5068490;28;20155;-74
2023/07/25 11:25:54;;;;;;;5.80;0.93;;;;;;;;;;5067122;28;20415;-73
2023/07/25 11:28:23;;;;;;;4.72;1.08;;;;;;;;;;5070335;28;20051;-74
2023/07/25 11:30:51;;;;;;;5.40;1.58;;;;;;;;;;5068037;28;20055;-74
2023/07/25 11:33:17;;;;;;;4.95;0.95;;;;;;;;;;5063806;28;20052;-73
2023/07/25 11:35:44;;;;;;;5.47;0.85;;;;;;;;;;5068206;28;20088;-75
2023/07/25 11:38:10;;;;;;;3.53;1.10;;;;;;;;;;5062710;28;20596;-73
2023/07/25 11:40:40;;;;;;;5.03;0.80;;;;;;;;;;5065678;28;20059;-74
2023/07/25 11:43:13;;;;;;;3.47;0.75;;;;;;;;;;5060109;28;20048;-74
2023/07/25 11:45:39;;;;;;;4.40;0.65;;;;;;;;;;5070357;28;20399;-74
2023/07/25 11:48:09;;;;;;;7.00;0.88;;;;;;;;;;5054012;28;20122;-74
2023/07/25 11:50:36;;;;;;;8.77;1.05;;;;;;;;;;5049461;28;20083;-73
2023/07/25 11:53:02;;;;;;;4.38;0.90;;;;;;;;;;5068811;28;20043;-74
2023/07/25 11:55:28;;;;;;;2.05;0.80;;;;;;;;;;5051142;28;20060;-74
2023/07/25 11:57:55;;;;;;;8.43;1.27;;;;;;;;;;5069072;28;20072;-72
2023/07/25 12:00:22;;;;;;;3.22;1.08;;;;;;;;;;5066133;28;20051;-73
2023/07/25 12:02:49;;;;;;;3.97;1.10;;;;;;;;;;5067407;28;20051;-74
2023/07/25 12:05:28;;;;;;;5.43;1.13;;;;;;;;;;5066404;28;20078;-74
2023/07/25 12:08:00;;;;;;;4.05;1.08;;;;;;;;;;5070707;28;20102;-77
2023/07/25 12:10:37;;;;;;;3.88;1.15;;;;;;;;;;5067827;27;20146;-79
2023/07/25 12:13:08;;;;;;;6.10;1.30;;;;;;;;;;5068454;28;20576;-78
2023/07/25 12:15:49;;;;;;;3.05;0.88;;;;;;;;;;5067803;28;20056;-79
2023/07/25 12:18:28;;;;;;;7.22;1.25;;;;;;;;;;5087174;28;20081;-79
2023/07/25 12:20:56;;;;;;;6.00;1.25;;;;;;;;;;5067670;27;20474;-79
2023/07/25 12:23:28;;;;;;;8.00;1.30;;;;;;;;;;5087171;27;20452;-79
2023/07/25 12:25:55;;;;;;;5.43;1.10;;;;;;;;;;5070429;28;20044;-79
2023/07/25 12:28:22;;;;;;;4.03;1.20;;;;;;;;;;5088239;28;20088;-78
2023/07/25 12:30:48;;;;;;;5.57;0.90;;;;;;;;;;5072800;28;20055;-79
2023/07/25 12:33:14;;;;;;;3.75;1.00;;;;;;;;;;5069537;28;20052;-79
2023/07/25 12:35:40;;;;;;;5.53;0.82;;;;;;;;;;5066423;27;20070;-79
2023/07/25 12:38:06;;;;;;;5.68;0.82;;;;;;;;;;5071132;28;20059;-76
2023/07/25 12:40:32;;;;;;;4.38;1.10;;;;;;;;;;5089690;28;20142;-74
2023/07/25 12:42:58;;;;;;;3.05;0.93;;;;;;;;;;5056100;28;20051;-74
2023/07/25 12:45:24;;;;;;;3.83;0.82;;;;;;;;;;5064432;28;20055;-75
2023/07/25 12:47:51;;;;;;;2.60;0.82;;;;;;;;;;5087076;28;20051;-75
2023/07/25 12:50:18;;;;;;;3.63;0.90;;;;;;;;;;5052001;28;20500;-74
2023/07/25 12:52:44;;;;;;;5.45;1.20;;;;;;;;;;5063266;28;20578;-75
2023/07/25 12:55:10;;;;;;;5.95;1.15;;;;;;;;;;5088392;27;20051;-74
2023/07/25 12:57:36;;;;;;;6.00;0.88;;;;;;;;;;5068714;28;20055;-72
2023/07/25 13:00:04;;;;;;;6.50;1.10;;;;;;;;;;5086220;28;20060;-74
2023/07/25 13:02:30;;;;;;;3.45;1.20;;;;;;;;;;5058130;28;20059;-73
2023/07/25 13:04:56;;;;;;;4.63;1.45;;;;;;;;;;5054815;28;20056;-74
2023/07/25 13:07:22;;;;;;;7.18;0.80;;;;;;;;;;5052372;28;21622;-74
2023/07/25 13:09:52;;;;;;;4.03;1.00;;;;;;;;;;5050290;28;20036;-74
2023/07/25 13:12:18;;;;;;;2.58;0.82;;;;;;;;;;5048300;28;20062;-74
2023/07/25 13:14:44;;;;;;;6.65;1.00;;;;;;;;;;5027525;28;20181;-74
2023/07/25 13:17:10;;;;;;;4.90;1.10;;;;;;;;;;5049549;28;20052;-73
2023/07/25 13:19:36;;;;;;;4.32;1.25;;;;;;;;;;5066659;28;20040;-74
2023/07/25 13:22:02;;;;;;;4.55;1.58;;;;;;;;;;5047675;28;20044;-74
2023/07/25 13:24:28;;;;;;;3.00;1.15;;;;;;;;;;5068266;28;20044;-74
2023/07/25 13:26:54;;;;;;;4.72;0.80;;;;;;;;;;5049846;28;20055;-75
2023/07/25 13:29:20;;;;;;;4.60;0.93;;;;;;;;;;5066142;28;20083;-75
2023/07/25 13:31:46;;;;;;;2.25;0.90;;;;;;;;;;5031478;28;20055;-74
2023/07/25 13:34:14;;;;;;;2.95;0.93;;;;;;;;;;5044064;28;20090;-76
2023/07/25 13:36:40;;;;;;;5.97;1.10;;;;;;;;;;5034890;28;20047;-74
2023/07/25 13:39:07;;;;;;;4.10;1.10;;;;;;;;;;5050460;28;20048;-73
2023/07/25 13:41:33;;;;;;;6.00;1.40;;;;;;;;;;5033046;28;20126;-74
2023/07/25 13:43:59;;;;;;;5.30;1.40;;;;;;;;;;5058842;28;20051;-70
2023/07/25 13:46:25;;;;;;;4.07;1.20;;;;;;;;;;5067680;28;20543;-73
2023/07/25 13:48:51;;;;;;;2.75;1.30;;;;;;;;;;5049391;28;20060;-75
2023/07/25 13:51:17;;;;;;;3.60;1.52;;;;;;;;;;5054673;28;20048;-75
2023/07/25 13:53:44;;;;;;;5.63;1.23;;;;;;;;;;5065496;28;20393;-75
2023/07/25 13:56:10;;;;;;;4.32;1.35;;;;;;;;;;5053883;28;20039;-74
2023/07/25 13:58:37;;;;;;;3.75;0.95;;;;;;;;;;5054916;28;20146;-75
2023/07/25 14:01:03;;;;;;;5.93;1.30;;;;;;;;;;5066055;28;20062;-74
2023/07/25 14:03:29;;;;;;;6.85;1.60;;;;;;;;;;5090048;28;20178;-75
2023/07/25 14:05:55;;;;;;;6.20;1.30;;;;;;;;;;5068834;28;20055;-74
2023/07/25 14:08:21;;;;;;;5.20;1.10;;;;;;;;;;5071922;28;20092;-79
2023/07/25 14:10:47;;;;;;;4.50;1.27;;;;;;;;;;5069307;28;20070;-75
2023/07/25 14:13:13;;;;;;;3.80;1.40;;;;;;;;;;5089492;28;20511;-75
2023/07/25 14:15:39;;;;;;;4.03;0.93;;;;;;;;;;5066787;28;20107;-76
2023/07/25 14:18:05;;;;;;;4.45;1.13;;;;;;;;;;5069769;28;20082;-75
2023/07/25 14:20:31;;;;;;;3.58;1.10;;;;;;;;;;5063316;28;20137;-75
2023/07/25 14:22:58;;;;;;;4.18;1.10;;;;;;;;;;5086377;28;20342;-76
2023/07/25 14:25:25;;;;;;;3.75;1.00;;;;;;;;;;5052674;28;20170;-75
2023/07/25 14:27:51;;;;;;;3.83;1.05;;;;;;;;;;5066574;28;20096;-74
2023/07/25 14:30:18;;;;;;;4.90;1.30;;;;;;;;;;5084264;28;20062;-76
2023/07/25 14:32:44;;;;;;;3.33;1.02;;;;;;;;;;5085410;28;20071;-75
2023/07/25 14:35:10;;;;;;;2.67;1.15;;;;;;;;;;5068872;28;20051;-76